createdAt,value
2022-11-01T00:00:27.524Z,18.92
2022-11-01T00:03:10.259Z,20.73
2022-11-01T00:05:52.967Z,17.85
2022-11-01T00:08:35.750Z,18.45
2022-11-01T00:11:19.125Z,17.80
2022-11-01T00:14:01.806Z,19.35
2022-11-01T00:16:46.078Z,14.85
2022-11-01T00:19:28.797Z,17.65
2022-11-01T00:22:11.514Z,15.95
2022-11-01T00:24:55.081Z,15.15
2022-11-01T00:27:38.064Z,16.30
2022-11-01T00:30:20.747Z,15.13
2022-11-01T00:33:04.833Z,16.73
2022-11-01T00:35:48.765Z,14.38
2022-11-01T00:38:31.482Z,15.25
2022-11-01T00:41:15.631Z,17.02
2022-11-01T00:43:58.339Z,14.00
2022-11-01T00:46:41.041Z,16.48
2022-11-01T00:49:25.106Z,16.38
2022-11-01T00:52:07.821Z,18.52
2022-11-01T00:54:50.608Z,21.30
2022-11-01T00:57:33.254Z,17.98
2022-11-01T01:00:16.680Z,15.18
2022-11-01T01:02:59.618Z,16.38
2022-11-01T01:05:44.160Z,14.35
2022-11-01T01:08:26.845Z,16.83
2022-11-01T01:11:09.545Z,16.83
2022-11-01T01:13:52.281Z,15.43
2022-11-01T01:16:35.261Z,16.05
2022-11-01T01:19:17.918Z,16.42
2022-11-01T01:22:02.935Z,15.85
2022-11-01T01:24:47.657Z,15.75
2022-11-01T01:27:30.366Z,17.85
2022-11-01T01:30:13.189Z,16.42
2022-11-01T01:32:55.972Z,14.93
2022-11-01T01:35:38.874Z,15.55
2022-11-01T01:38:22.867Z,18.55
2022-11-01T01:41:19.662Z,16.17
2022-11-01T01:44:03.452Z,16.33
2022-11-01T01:46:46.190Z,16.70
2022-11-01T01:49:29.003Z,16.45
2022-11-01T01:52:12.122Z,17.10
2022-11-01T01:54:56.250Z,17.55
2022-11-01T01:57:40.451Z,18.48
2022-11-01T02:00:23.473Z,19.27
2022-11-01T02:03:07.214Z,20.17
2022-11-01T02:05:51.948Z,18.88
2022-11-01T02:08:35.162Z,18.25
2022-11-01T02:11:19.966Z,17.90
2022-11-01T02:14:03.184Z,15.85
2022-11-01T02:16:50.548Z,17.02
2022-11-01T02:19:43.971Z,19.10
2022-11-01T02:22:30.307Z,22.05
2022-11-01T02:25:28.407Z,21.88
2022-11-01T02:28:22.279Z,17.70
2022-11-01T02:31:12.268Z,20.17
2022-11-01T02:33:57.914Z,17.73
2022-11-01T02:36:42.902Z,22.73
2022-11-01T02:39:29.058Z,22.17
2022-11-01T02:42:14.558Z,22.02
2022-11-01T02:45:00.440Z,19.92
2022-11-01T02:47:43.037Z,20.13
2022-11-01T02:50:28.854Z,18.38
2022-11-01T02:53:11.942Z,24.65
2022-11-01T02:55:54.776Z,22.65
2022-11-01T02:58:37.483Z,24.65
2022-11-01T03:01:23.372Z,21.75
2022-11-01T03:04:06.190Z,23.23
2022-11-01T03:06:52.212Z,21.42
2022-11-01T03:09:35.812Z,26.20
2022-11-01T03:12:21.041Z,22.60
2022-11-01T03:15:06.198Z,20.83
2022-11-01T03:17:51.972Z,21.20
2022-11-01T03:20:48.406Z,22.05
2022-11-01T03:23:35.422Z,20.98
2022-11-01T03:26:20.805Z,24.08
2022-11-01T03:29:06.484Z,23.33
2022-11-01T03:31:50.793Z,27.38
2022-11-01T03:34:34.952Z,23.05
2022-11-01T03:37:20.148Z,22.13
2022-11-01T03:40:05.383Z,22.65
2022-11-01T03:42:49.713Z,21.10
2022-11-01T03:45:34.159Z,22.92
2022-11-01T03:48:16.827Z,22.30
2022-11-01T03:50:59.467Z,21.20
2022-11-01T03:53:42.040Z,24.27
2022-11-01T03:56:26.140Z,20.88
2022-11-01T03:59:09.298Z,23.55
2022-11-01T04:01:52.789Z,21.50
2022-11-01T04:04:35.549Z,24.50
2022-11-01T04:07:18.207Z,25.25
2022-11-01T04:10:00.815Z,26.45
2022-11-01T04:12:46.667Z,26.88
2022-11-01T04:15:46.780Z,22.58
2022-11-01T04:18:46.971Z,21.38
2022-11-01T04:21:30.402Z,24.80
2022-11-01T04:24:20.884Z,22.95
2022-11-01T04:27:03.716Z,23.25
2022-11-01T04:29:47.730Z,25.92
2022-11-01T04:32:30.311Z,24.50
2022-11-01T04:35:13.013Z,26.05
2022-11-01T04:37:59.248Z,21.73
2022-11-01T04:40:42.502Z,23.00
2022-11-01T04:43:25.068Z,22.98
2022-11-01T04:46:09.153Z,26.60
2022-11-01T04:48:51.736Z,29.70
2022-11-01T04:51:34.484Z,26.20
2022-11-01T04:54:17.265Z,22.98
2022-11-01T04:57:00.146Z,20.27
2022-11-01T04:59:42.860Z,24.23
2022-11-01T05:02:26.825Z,23.17
2022-11-01T05:05:10.237Z,24.45
2022-11-01T05:10:47.442Z,25.50
2022-11-01T05:13:31.080Z,29.58
2022-11-01T05:16:19.503Z,24.15
2022-11-01T05:19:04.327Z,25.77
2022-11-01T05:21:46.944Z,23.83
2022-11-01T05:24:29.692Z,26.73
2022-11-01T05:27:12.329Z,30.13
2022-11-01T05:29:54.944Z,26.38
2022-11-01T05:32:38.017Z,29.08
2022-11-01T05:35:22.017Z,28.75
2022-11-01T05:38:05.417Z,29.98
2022-11-01T05:40:48.221Z,25.45
2022-11-01T05:43:30.795Z,25.15
2022-11-01T05:46:13.465Z,33.30
2022-11-01T05:48:56.109Z,26.27
2022-11-01T05:51:40.259Z,24.02
2022-11-01T05:54:22.885Z,28.15
2022-11-01T05:57:05.885Z,26.77
2022-11-01T05:59:48.521Z,29.92
2022-11-01T06:02:32.375Z,26.08
2022-11-01T06:05:15.068Z,26.48
2022-11-01T06:08:01.129Z,32.08
2022-11-01T06:10:43.797Z,24.27
2022-11-01T06:13:26.461Z,27.98
2022-11-01T06:16:09.471Z,27.60
2022-11-01T06:18:52.130Z,26.98
2022-11-01T06:21:34.823Z,27.48
2022-11-01T06:24:18.849Z,27.30
2022-11-01T06:27:01.493Z,22.60
2022-11-01T06:29:44.169Z,28.65
2022-11-01T06:32:27.269Z,26.42
2022-11-01T06:35:11.822Z,26.50
2022-11-01T06:37:54.506Z,31.50
2022-11-01T06:40:38.605Z,27.63
2022-11-01T06:43:21.313Z,28.13
2022-11-01T06:46:04.107Z,27.27
2022-11-01T06:48:48.381Z,28.15
2022-11-01T06:51:30.993Z,31.67
2022-11-01T06:54:13.702Z,28.45
2022-11-01T06:56:57.732Z,30.30
2022-11-01T06:59:40.362Z,30.48
2022-11-01T07:02:28.546Z,26.23
2022-11-01T07:05:12.465Z,27.90
2022-11-01T07:07:55.425Z,27.67
2022-11-01T07:10:38.460Z,27.63
2022-11-01T07:13:22.438Z,27.27
2022-11-01T07:16:05.504Z,30.10
2022-11-01T07:18:49.102Z,27.42
2022-11-01T07:21:31.701Z,23.80
2022-11-01T07:24:14.408Z,24.50
2022-11-01T07:26:57.043Z,29.45
2022-11-01T07:29:41.724Z,29.40
2022-11-01T07:32:24.400Z,26.38
2022-11-01T07:35:07.682Z,29.30
2022-11-01T07:37:50.368Z,27.20
2022-11-01T07:40:33.218Z,31.90
2022-11-01T07:43:16.403Z,24.63
2022-11-01T07:46:01.267Z,27.52
2022-11-01T07:48:43.938Z,26.52
2022-11-01T07:51:26.579Z,24.70
2022-11-01T07:54:09.195Z,27.05
2022-11-01T07:56:52.062Z,24.98
2022-11-01T07:59:34.633Z,26.95
2022-11-01T08:02:18.772Z,27.77
2022-11-01T08:05:01.509Z,24.33
2022-11-01T08:07:44.486Z,23.73
2022-11-01T08:10:27.404Z,25.70
2022-11-01T08:13:14.728Z,24.67
2022-11-01T08:15:57.585Z,21.38
2022-11-01T08:18:41.546Z,24.45
2022-11-01T08:21:24.207Z,20.85
2022-11-01T08:24:07.195Z,21.80
2022-11-01T08:26:49.937Z,22.02
2022-11-01T08:29:32.893Z,21.38
2022-11-01T08:32:15.739Z,21.58
2022-11-01T08:34:59.749Z,22.08
2022-11-01T08:37:49.047Z,21.10
2022-11-01T08:40:32.661Z,25.13
2022-11-01T08:43:15.388Z,25.75
2022-11-01T08:45:59.103Z,26.80
2022-11-01T08:48:41.745Z,19.55
2022-11-01T08:51:26.259Z,23.85
2022-11-01T08:54:08.906Z,21.08
2022-11-01T08:56:51.619Z,20.95
2022-11-01T08:59:34.344Z,19.25
2022-11-01T09:02:17.320Z,17.30
2022-11-01T09:05:02.658Z,16.90
2022-11-01T09:07:46.695Z,17.35
2022-11-01T09:10:30.842Z,19.67
2022-11-01T09:13:13.855Z,19.60
2022-11-01T09:16:01.383Z,15.07
2022-11-01T09:18:45.222Z,17.60
2022-11-01T09:21:31.628Z,16.52
2022-11-01T09:24:16.971Z,16.80
2022-11-01T09:26:59.596Z,14.77
2022-11-01T09:29:44.258Z,13.55
2022-11-01T09:32:29.798Z,13.10
2022-11-01T09:35:12.547Z,13.07
2022-11-01T09:37:58.320Z,11.52
2022-11-01T09:40:46.694Z,10.88
2022-11-01T09:43:30.597Z,10.52
2022-11-01T09:46:14.971Z,9.90
2022-11-01T09:48:59.780Z,7.45
2022-11-01T09:51:42.452Z,6.07
2022-11-01T09:54:25.949Z,6.28
2022-11-01T09:57:15.589Z,4.78
2022-11-01T10:00:04.214Z,7.97
2022-11-01T10:03:08.525Z,10.60
2022-11-01T10:05:56.166Z,6.00
2022-11-01T10:08:44.296Z,11.02
2022-11-01T10:11:35.574Z,7.55
2022-11-01T10:14:25.021Z,4.80
2022-11-01T10:17:12.984Z,8.52
2022-11-01T10:19:56.821Z,6.75
2022-11-01T10:22:39.593Z,7.13
2022-11-01T10:25:23.573Z,10.50
2022-11-01T10:28:08.641Z,9.40
2022-11-01T10:30:55.419Z,8.88
2022-11-01T10:33:40.590Z,8.15
2022-11-01T10:36:26.926Z,6.55
2022-11-01T10:42:18.361Z,8.43
2022-11-01T10:45:04.472Z,4.90
2022-11-01T10:47:57.198Z,6.43
2022-11-01T10:50:40.014Z,4.93
2022-11-01T10:53:23.137Z,8.73
2022-11-01T10:56:09.206Z,7.13
2022-11-01T10:58:54.770Z,7.35
2022-11-01T11:01:42.463Z,7.22
2022-11-01T11:04:26.798Z,7.32
2022-11-01T11:07:13.549Z,5.63
2022-11-01T11:09:56.430Z,9.23
2022-11-01T11:12:39.652Z,5.40
2022-11-01T11:15:23.567Z,4.40
2022-11-01T11:18:09.801Z,3.65
2022-11-01T11:20:54.563Z,4.32
2022-11-01T11:23:41.373Z,2.15
2022-11-01T11:26:26.161Z,6.65
2022-11-01T11:29:08.962Z,3.10
2022-11-01T11:31:56.073Z,3.65
2022-11-01T11:34:39.228Z,3.85
2022-11-01T11:37:24.724Z,4.78
2022-11-01T11:40:17.175Z,6.50
2022-11-01T11:43:14.966Z,3.85
2022-11-01T11:46:04.047Z,2.45
2022-11-01T11:48:47.616Z,1.67
2022-11-01T11:51:31.032Z,3.30
2022-11-01T11:54:22.301Z,3.88
2022-11-01T11:57:10.861Z,3.03
2022-11-01T11:59:56.115Z,2.65
2022-11-01T12:06:13.861Z,7.93
2022-11-01T12:08:57.945Z,4.35
2022-11-01T12:11:46.429Z,4.72
2022-11-01T12:14:40.014Z,2.17
2022-11-01T12:17:27.169Z,5.55
2022-11-01T12:20:13.594Z,3.80
2022-11-01T12:23:01.500Z,4.78
2022-11-01T12:25:45.542Z,8.77
2022-11-01T12:28:32.007Z,4.10
2022-11-01T12:31:16.257Z,5.40
2022-11-01T12:34:00.627Z,2.55
2022-11-01T12:36:46.318Z,4.22
2022-11-01T12:39:36.239Z,4.13
2022-11-01T12:42:20.773Z,5.38
2022-11-01T12:45:09.384Z,4.82
2022-11-01T12:47:55.289Z,7.70
2022-11-01T12:50:41.284Z,7.63
2022-11-01T12:53:27.566Z,4.97
2022-11-01T12:56:10.236Z,7.93
2022-11-01T12:58:53.442Z,7.57
2022-11-01T13:01:41.627Z,5.88
2022-11-01T13:04:31.566Z,7.47
2022-11-01T13:07:28.562Z,3.97
2022-11-01T13:10:15.543Z,6.70
2022-11-01T13:13:03.079Z,5.57
2022-11-01T13:15:54.715Z,6.80
2022-11-01T13:18:45.080Z,7.32
2022-11-01T13:21:34.454Z,5.43
2022-11-01T13:24:20.146Z,13.35
2022-11-01T13:27:06.127Z,5.63
2022-11-01T13:29:53.030Z,4.88
2022-11-01T13:32:38.633Z,7.25
2022-11-01T13:35:44.271Z,6.35
2022-11-01T13:38:30.002Z,6.18
2022-11-01T13:41:19.755Z,7.32
2022-11-01T13:44:06.506Z,5.63
2022-11-01T13:46:54.999Z,5.15
2022-11-01T13:49:55.470Z,5.63
2022-11-01T13:52:46.994Z,4.20
2022-11-01T13:55:32.922Z,3.90
2022-11-01T13:58:18.257Z,3.38
2022-11-01T14:01:27.518Z,5.60
2022-11-01T14:04:28.838Z,8.05
2022-11-01T14:07:16.442Z,4.47
2022-11-01T14:10:00.794Z,6.57
2022-11-01T14:12:48.323Z,3.22
2022-11-01T14:15:33.384Z,7.22
2022-11-01T14:18:16.088Z,6.60
2022-11-01T14:20:59.025Z,7.03
2022-11-01T14:23:51.379Z,8.10
2022-11-01T14:26:55.925Z,4.00
2022-11-01T14:29:41.654Z,5.35
2022-11-01T14:32:26.003Z,4.57
2022-11-01T14:35:22.328Z,2.97
2022-11-01T14:38:08.089Z,12.70
2022-11-01T14:40:53.492Z,7.03
2022-11-01T14:43:38.677Z,4.55
2022-11-01T14:46:25.442Z,6.00
2022-11-01T14:49:13.785Z,7.40
2022-11-01T14:51:58.856Z,5.72
2022-11-01T14:54:45.249Z,3.85
2022-11-01T14:57:29.128Z,6.50
2022-11-01T15:00:23.626Z,4.03
2022-11-01T15:03:10.608Z,5.35
2022-11-01T15:05:53.761Z,3.95
2022-11-01T15:08:38.829Z,3.95
2022-11-01T15:11:21.751Z,6.88
2022-11-01T15:14:06.505Z,4.15
2022-11-01T15:16:50.935Z,4.38
2022-11-01T15:19:37.966Z,3.95
2022-11-01T15:22:21.604Z,4.82
2022-11-01T15:25:05.978Z,3.90
2022-11-01T15:27:49.387Z,6.97
2022-11-01T15:30:33.950Z,7.30
2022-11-01T15:33:18.106Z,4.25
2022-11-01T15:36:03.370Z,5.82
2022-11-01T15:38:50.496Z,6.50
2022-11-01T15:41:34.225Z,4.28
2022-11-01T15:44:21.342Z,4.68
2022-11-01T15:47:06.626Z,3.92
2022-11-01T15:49:51.292Z,3.83
2022-11-01T15:52:36.455Z,7.10
2022-11-01T15:55:26.355Z,11.48
2022-11-01T15:58:13.977Z,9.30
2022-11-01T16:00:58.733Z,5.13
2022-11-01T16:03:43.182Z,5.68
2022-11-01T16:06:28.074Z,5.20
2022-11-01T16:09:18.239Z,5.20
2022-11-01T16:12:02.082Z,4.85
2022-11-01T16:14:45.207Z,4.93
2022-11-01T16:17:33.242Z,5.68
2022-11-01T16:20:32.770Z,12.60
2022-11-01T16:23:25.626Z,3.55
2022-11-01T16:26:10.289Z,3.67
2022-11-01T16:28:55.205Z,5.18
2022-11-01T16:31:41.746Z,7.15
2022-11-01T16:34:25.177Z,6.00
2022-11-01T16:37:14.821Z,4.07
2022-11-01T16:39:59.090Z,5.07
2022-11-01T16:42:43.149Z,6.03
2022-11-01T16:45:26.171Z,4.20
2022-11-01T16:48:21.241Z,4.07
2022-11-01T16:51:04.631Z,5.85
2022-11-01T16:53:47.343Z,5.25
2022-11-01T16:56:37.380Z,4.13
2022-11-01T16:59:26.479Z,5.80
2022-11-01T17:02:15.310Z,6.25
2022-11-01T17:04:59.947Z,7.78
2022-11-01T17:07:42.822Z,4.85
2022-11-01T17:10:26.662Z,5.53
2022-11-01T17:13:09.639Z,6.57
2022-11-01T17:15:53.893Z,6.05
2022-11-01T17:18:38.026Z,8.32
2022-11-01T17:21:21.555Z,7.25
2022-11-01T17:24:04.761Z,4.07
2022-11-01T17:26:48.764Z,4.32
2022-11-01T17:29:31.823Z,5.47
2022-11-01T17:32:16.101Z,6.20
2022-11-01T17:34:58.829Z,7.82
2022-11-01T17:37:42.146Z,5.78
2022-11-01T17:40:26.235Z,6.90
2022-11-01T17:43:10.464Z,4.32
2022-11-01T17:45:53.304Z,6.57
2022-11-01T17:48:38.021Z,4.85
2022-11-01T17:51:23.091Z,6.70
2022-11-01T17:54:05.912Z,6.15
2022-11-01T17:56:48.723Z,7.63
2022-11-01T17:59:31.839Z,4.13
2022-11-01T18:02:14.837Z,7.57
2022-11-01T18:04:59.211Z,5.68
2022-11-01T18:07:43.772Z,2.90
2022-11-01T18:10:32.344Z,5.30
2022-11-01T18:13:26.716Z,5.80
2022-11-01T18:16:14.378Z,3.78
2022-11-01T18:19:12.010Z,5.88
2022-11-01T18:21:58.019Z,6.93
2022-11-01T18:24:42.452Z,6.03
2022-11-01T18:27:31.724Z,8.02
2022-11-01T18:30:15.775Z,4.65
2022-11-01T18:33:00.232Z,9.05
2022-11-01T18:35:45.596Z,6.50
2022-11-01T18:38:33.635Z,5.82
2022-11-01T18:41:18.300Z,8.88
2022-11-01T18:44:01.942Z,5.57
2022-11-01T18:46:47.208Z,9.85
2022-11-01T18:49:30.317Z,7.28
2022-11-01T18:52:16.756Z,9.80
2022-11-01T18:55:01.441Z,5.22
2022-11-01T18:57:44.535Z,7.38
2022-11-01T19:00:27.668Z,10.35
2022-11-01T19:03:14.777Z,7.47
2022-11-01T19:05:58.282Z,5.07
2022-11-01T19:08:41.046Z,6.75
2022-11-01T19:11:26.509Z,6.88
2022-11-01T19:14:12.636Z,7.60
2022-11-01T19:16:56.543Z,7.15
2022-11-01T19:19:42.496Z,5.38
2022-11-01T19:22:37.949Z,5.80
2022-11-01T19:25:21.999Z,5.55
2022-11-01T19:28:12.238Z,8.38
2022-11-01T19:30:56.801Z,6.38
2022-11-01T19:33:40.229Z,4.80
2022-11-01T19:36:24.068Z,7.80
2022-11-01T19:39:20.896Z,4.60
2022-11-01T19:42:12.721Z,4.93
2022-11-01T19:44:58.357Z,4.55
2022-11-01T19:47:42.124Z,4.97
2022-11-01T19:50:27.117Z,4.82
2022-11-01T19:53:17.788Z,5.60
2022-11-01T19:56:01.463Z,5.53
2022-11-01T19:58:45.431Z,3.88
2022-11-01T20:01:43.279Z,5.10
2022-11-01T20:04:29.573Z,3.58
2022-11-01T20:07:13.810Z,4.93
2022-11-01T20:09:58.828Z,6.93
2022-11-01T20:12:44.652Z,6.95
2022-11-01T20:15:28.362Z,7.07
2022-11-01T20:18:11.194Z,8.13
2022-11-01T20:20:56.614Z,5.43
2022-11-01T20:23:39.955Z,8.80
2022-11-01T20:26:23.064Z,5.82
2022-11-01T20:29:05.896Z,5.55
2022-11-01T20:31:49.002Z,4.13
2022-11-01T20:34:32.777Z,4.65
2022-11-01T20:37:28.410Z,4.65
2022-11-01T20:40:12.556Z,5.70
2022-11-01T20:42:55.737Z,5.07
2022-11-01T20:45:38.652Z,6.57
2022-11-01T20:48:21.483Z,5.47
2022-11-01T20:51:04.287Z,3.70
2022-11-01T20:53:48.538Z,4.03
2022-11-01T20:56:31.359Z,4.72
2022-11-01T20:59:15.906Z,2.33
2022-11-01T21:02:04.066Z,4.32
2022-11-01T21:04:47.181Z,4.00
2022-11-01T21:07:30.506Z,4.65
2022-11-01T21:10:27.627Z,7.13
2022-11-01T21:13:21.605Z,4.72
2022-11-01T21:16:09.000Z,2.58
2022-11-01T21:18:53.110Z,6.57
2022-11-01T21:21:42.406Z,3.60
2022-11-01T21:24:33.370Z,7.10
2022-11-01T21:27:34.082Z,5.15
2022-11-01T21:30:20.818Z,3.10
2022-11-01T21:33:14.157Z,5.75
2022-11-01T21:35:56.837Z,6.15
2022-11-01T21:38:42.018Z,5.03
2022-11-01T21:41:26.863Z,5.20
2022-11-01T21:44:21.147Z,4.32
2022-11-01T21:47:23.500Z,3.60
2022-11-01T21:50:08.983Z,7.68
2022-11-01T21:52:51.723Z,3.78
2022-11-01T21:55:34.679Z,6.05
2022-11-01T21:58:17.411Z,4.63
2022-11-01T22:01:00.241Z,8.07
2022-11-01T22:03:43.000Z,3.58
2022-11-01T22:06:27.113Z,4.22
2022-11-01T22:09:10.260Z,3.90
2022-11-01T22:11:53.333Z,3.00
2022-11-01T22:14:37.477Z,5.57
2022-11-01T22:17:20.206Z,4.38
2022-11-01T22:20:03.215Z,3.67
2022-11-01T22:22:47.472Z,6.75
2022-11-01T22:25:30.193Z,3.70
2022-11-01T22:28:12.909Z,10.50
2022-11-01T22:30:56.133Z,3.05
2022-11-01T22:33:38.807Z,4.25
2022-11-01T22:36:22.981Z,3.97
2022-11-01T22:39:13.477Z,5.75
2022-11-01T22:41:56.394Z,4.35
2022-11-01T22:44:40.049Z,5.20
2022-11-01T22:47:25.712Z,6.68
2022-11-01T22:50:12.430Z,5.63
2022-11-01T22:52:55.341Z,5.55
2022-11-01T22:55:40.722Z,3.10
2022-11-01T22:58:28.979Z,5.07
2022-11-01T23:01:23.528Z,4.97
2022-11-01T23:04:17.793Z,4.07
2022-11-01T23:07:02.510Z,2.63
2022-11-01T23:09:45.731Z,3.67
2022-11-01T23:12:47.800Z,3.65
2022-11-01T23:15:31.539Z,7.22
2022-11-01T23:18:19.576Z,6.00
2022-11-01T23:21:03.537Z,4.15
2022-11-01T23:23:47.260Z,4.85
2022-11-01T23:26:30.595Z,5.25
2022-11-01T23:29:14.842Z,7.72
2022-11-01T23:31:57.548Z,4.18
2022-11-01T23:34:40.474Z,2.80
2022-11-01T23:37:23.585Z,5.75
2022-11-01T23:40:13.073Z,2.42
2022-11-01T23:42:55.881Z,5.63
2022-11-01T23:45:40.029Z,4.53
2022-11-01T23:48:23.581Z,2.47
2022-11-01T23:51:06.316Z,7.45
2022-11-01T23:53:50.855Z,4.05
2022-11-01T23:56:33.586Z,1.40
2022-11-01T23:59:16.800Z,3.55
